Time;durP1;ratioP1;P1;durP2;ratioP2;P2;SDS_P1;SDS_P2;PMS_P1;PMS_P2;Temp;Humidity;BMP_temperature;BMP_pressure;BME280_temperature;BME280_humidity;BME280_pressure;Samples;Min_cycle;Max_cycle;Signal;HPM_P1;HPM_P2
2022/04/15 00:00:39;;;;;;;3.80;3.70;;;9.80;99.90;;;;;;4145055;28;20129;-83
2022/04/15 00:02:41;;;;;;;4.40;4.10;;;9.80;99.90;;;;;;4162601;28;20053;-84
2022/04/15 00:04:44;;;;;;;3.58;3.28;;;9.80;99.90;;;;;;4162545;28;20037;-83
2022/04/15 00:06:47;;;;;;;3.58;3.28;;;9.70;99.90;;;;;;4162207;28;20037;-83
2022/04/15 00:08:49;;;;;;;3.10;2.90;;;9.80;99.90;;;;;;4172712;28;20129;-83
2022/04/15 00:10:51;;;;;;;3.65;3.05;;;9.80;99.90;;;;;;4162157;28;20045;-83
2022/04/15 00:12:55;;;;;;;3.47;3.30;;;9.90;99.90;;;;;;4172964;28;20140;-83
2022/04/15 00:14:58;;;;;;;4.43;4.07;;;9.80;99.90;;;;;;4162167;28;20035;-83
2022/04/15 00:17:00;;;;;;;3.55;3.20;;;9.80;99.90;;;;;;4162164;28;20056;-83
2022/04/15 00:19:03;;;;;;;3.17;2.85;;;9.80;99.90;;;;;;4156587;28;20049;-84
2022/04/15 00:21:05;;;;;;;3.13;3.03;;;9.80;99.90;;;;;;4171229;28;20052;-83
2022/04/15 00:23:07;;;;;;;4.63;3.30;;;9.70;99.90;;;;;;4160760;28;20099;-83
2022/04/15 00:25:10;;;;;;;3.50;3.30;;;9.60;99.90;;;;;;4161966;28;20189;-83
2022/04/15 00:27:13;;;;;;;;;;;9.50;99.90;;;;;;4162275;28;20461;-83
2022/04/15 00:29:17;;;;;;;4.00;3.70;;;9.50;99.90;;;;;;4145353;28;19925;-84
2022/04/15 00:31:19;;;;;;;3.85;3.75;;;9.40;99.90;;;;;;4169146;28;20106;-83
2022/04/15 00:33:22;;;;;;;4.75;3.95;;;9.40;99.90;;;;;;4160530;28;20108;-84
2022/04/15 00:35:24;;;;;;;2.95;2.63;;;9.40;99.90;;;;;;4161825;28;20562;-83
2022/04/15 00:37:27;;;;;;;3.10;2.63;;;9.40;99.90;;;;;;4158056;28;20037;-84
2022/04/15 00:39:30;;;;;;;3.05;2.85;;;9.40;99.90;;;;;;4161728;28;20068;-83
2022/04/15 00:41:32;;;;;;;1.98;1.88;;;9.50;99.90;;;;;;4161729;28;20060;-83
2022/04/15 00:43:35;;;;;;;2.15;1.95;;;9.50;99.90;;;;;;4151393;28;20050;-83
2022/04/15 00:45:37;;;;;;;3.30;3.10;;;9.50;99.90;;;;;;4167217;28;20600;-83
2022/04/15 00:48:00;;;;;;;2.70;2.60;;;9.40;99.90;;;;;;4161934;28;20049;-84
2022/04/15 00:50:04;;;;;;;4.03;3.78;;;9.30;99.90;;;;;;4163559;28;20055;-83
2022/04/15 00:52:08;;;;;;;3.65;2.55;;;9.20;99.90;;;;;;4161224;28;20079;-83
2022/04/15 00:54:12;;;;;;;1.73;1.63;;;9.10;99.90;;;;;;4160066;28;20049;-83
2022/04/15 00:56:14;;;;;;;2.78;2.42;;;9.10;99.90;;;;;;4176644;28;20365;-83
2022/04/15 00:58:20;;;;;;;2.60;2.50;;;9.20;99.90;;;;;;4161895;28;20037;-84
2022/04/15 01:00:23;;;;;;;3.05;2.80;;;9.20;99.90;;;;;;4162941;28;20041;-84
2022/04/15 01:02:28;;;;;;;3.55;3.35;;;9.20;99.90;;;;;;4166894;28;20072;-83
2022/04/15 01:04:31;;;;;;;2.83;2.63;;;9.10;99.90;;;;;;4159964;28;20061;-83
2022/04/15 01:06:37;;;;;;;1.92;1.70;;;9.20;99.90;;;;;;4159926;28;20042;-84
2022/04/15 01:08:41;;;;;;;2.53;2.42;;;9.30;99.90;;;;;;4156482;28;20085;-84
2022/04/15 01:10:46;;;;;;;4.15;3.28;;;9.30;99.90;;;;;;4149992;28;20512;-83
2022/04/15 01:12:54;;;;;;;3.60;3.40;;;9.20;99.90;;;;;;4175015;28;20040;-83
2022/04/15 01:15:16;;;;;;;4.43;4.22;;;9.10;99.90;;;;;;4160006;28;20030;-83
2022/04/15 01:17:19;;;;;;;3.75;3.65;;;8.90;99.90;;;;;;4145506;28;20038;-83
2022/04/15 01:19:21;;;;;;;7.10;3.08;;;9.00;99.90;;;;;;4161171;28;20037;-83
2022/04/15 01:21:31;;;;;;;3.53;3.20;;;9.00;99.90;;;;;;4174543;28;20041;-83
2022/04/15 01:23:33;;;;;;;2.63;2.40;;;9.10;99.90;;;;;;4146787;28;20595;-83
2022/04/15 01:25:36;;;;;;;4.50;4.15;;;9.10;99.90;;;;;;4160909;28;20049;-83
2022/04/15 01:27:43;;;;;;;2.35;2.25;;;9.00;99.90;;;;;;4160793;28;20088;-83
2022/04/15 01:29:45;;;;;;;3.30;3.08;;;8.80;99.90;;;;;;4159751;28;20069;-83
2022/04/15 01:31:48;;;;;;;3.65;3.35;;;8.60;99.90;;;;;;4162466;28;20030;-84
2022/04/15 01:33:50;;;;;;;4.07;3.97;;;8.40;99.90;;;;;;4162207;28;20457;-83
2022/04/15 01:35:52;;;;;;;4.30;4.10;;;8.30;99.90;;;;;;4164219;28;20064;-83
2022/04/15 01:37:56;;;;;;;5.57;3.75;;;8.30;99.90;;;;;;4161080;28;20029;-83
2022/04/15 01:40:00;;;;;;;5.88;5.13;;;8.20;99.90;;;;;;4160856;28;20057;-83
2022/04/15 01:42:03;;;;;;;5.05;4.60;;;8.20;99.90;;;;;;4161105;28;20136;-83
2022/04/15 01:44:10;;;;;;;5.32;4.88;;;8.20;99.90;;;;;;4170312;28;20045;-83
2022/04/15 01:46:13;;;;;;;6.20;5.70;;;8.20;99.90;;;;;;4165021;28;20120;-83
2022/04/15 01:48:16;;;;;;;3.95;3.67;;;8.10;99.90;;;;;;4160726;28;20049;-83
2022/04/15 01:50:18;;;;;;;3.75;3.42;;;8.20;99.90;;;;;;4162413;28;20502;-83
2022/04/15 01:52:20;;;;;;;3.33;3.13;;;8.20;99.90;;;;;;4160786;28;20048;-83
2022/04/15 01:54:22;;;;;;;4.13;3.83;;;8.20;99.90;;;;;;4159240;28;20104;-83
2022/04/15 01:56:24;;;;;;;4.03;3.80;;;8.30;99.90;;;;;;4159546;28;20038;-83
2022/04/15 01:58:26;;;;;;;3.60;3.50;;;8.30;99.90;;;;;;4169444;28;20044;-83
2022/04/15 02:00:28;;;;;;;4.25;3.95;;;8.30;99.90;;;;;;4160630;28;20048;-83
2022/04/15 02:02:30;;;;;;;2.75;2.65;;;8.20;99.90;;;;;;4162033;28;20045;-83
2022/04/15 02:04:33;;;;;;;4.70;4.50;;;8.10;99.90;;;;;;4161657;28;20152;-83
2022/04/15 02:06:35;;;;;;;4.10;4.00;;;8.00;99.90;;;;;;4159638;28;20168;-83
2022/04/15 02:08:38;;;;;;;4.75;3.15;;;7.90;99.90;;;;;;4160137;28;20060;-83
2022/04/15 02:10:41;;;;;;;;;;;7.80;99.90;;;;;;4159525;28;20957;-83
2022/04/15 02:12:43;;;;;;;3.40;3.22;;;7.70;99.90;;;;;;4156059;28;20023;-83
2022/04/15 02:14:46;;;;;;;3.90;3.67;;;7.70;99.90;;;;;;4175868;28;20041;-84
2022/04/15 02:16:50;;;;;;;3.42;3.22;;;7.60;99.90;;;;;;4161216;28;20033;-83
2022/04/15 02:18:52;;;;;;;3.55;3.25;;;7.60;99.90;;;;;;4159585;28;20045;-83
2022/04/15 02:20:54;;;;;;;6.10;3.25;;;7.60;99.90;;;;;;4160405;28;20038;-83
2022/04/15 02:22:56;;;;;;;3.50;3.38;;;7.60;99.90;;;;;;4161508;28;20095;-83
2022/04/15 02:24:58;;;;;;;3.95;3.65;;;7.70;99.90;;;;;;4167204;28;20135;-83
2022/04/15 02:27:00;;;;;;;2.92;2.72;;;7.70;99.90;;;;;;4163748;28;20041;-83
2022/04/15 02:29:02;;;;;;;3.60;3.50;;;7.60;99.90;;;;;;4162010;28;20091;-83
2022/04/15 02:31:04;;;;;;;2.72;2.58;;;7.60;99.90;;;;;;4160640;28;20069;-83
2022/04/15 02:33:06;;;;;;;2.83;2.72;;;7.70;99.90;;;;;;4159837;28;20045;-83
2022/04/15 02:35:09;;;;;;;2.97;2.88;;;7.70;99.90;;;;;;4174221;28;20645;-83
2022/04/15 02:37:11;;;;;;;3.22;3.03;;;7.60;99.90;;;;;;4172830;28;20126;-83
2022/04/15 02:39:13;;;;;;;3.38;3.28;;;7.50;99.90;;;;;;4154692;28;20072;-83
2022/04/15 02:41:16;;;;;;;3.63;3.42;;;7.40;99.90;;;;;;4162299;28;20065;-83
2022/04/15 02:43:20;;;;;;;4.63;3.08;;;7.40;99.90;;;;;;4162460;28;20164;-83
2022/04/15 02:45:22;;;;;;;3.38;3.08;;;7.40;99.90;;;;;;4172799;28;20744;-83
2022/04/15 02:47:25;;;;;;;3.53;3.42;;;7.40;99.90;;;;;;4160490;28;20042;-83
2022/04/15 02:49:28;;;;;;;3.45;3.03;;;7.40;99.90;;;;;;4159944;28;20045;-83
2022/04/15 02:51:31;;;;;;;3.40;3.10;;;7.50;99.90;;;;;;4160365;28;20045;-83
2022/04/15 02:53:34;;;;;;;3.28;3.08;;;7.50;99.90;;;;;;4160453;28;20080;-83
2022/04/15 02:55:36;;;;;;;4.53;2.92;;;7.50;99.90;;;;;;4159334;28;20544;-83
2022/04/15 02:57:38;;;;;;;4.63;3.50;;;7.30;99.90;;;;;;4160858;28;20087;-83
2022/04/15 02:59:40;;;;;;;3.15;2.95;;;7.30;99.90;;;;;;4159019;28;20531;-83
2022/04/15 03:01:45;;;;;;;3.42;3.22;;;7.20;99.90;;;;;;4161543;28;20091;-83
2022/04/15 03:03:47;;;;;;;3.47;3.17;;;7.40;99.90;;;;;;4160291;28;20044;-83
2022/04/15 03:05:49;;;;;;;3.22;3.08;;;7.40;99.90;;;;;;4160086;28;20041;-83
2022/04/15 03:07:51;;;;;;;3.35;3.15;;;7.50;99.90;;;;;;4165931;28;20140;-83
2022/04/15 03:09:53;;;;;;;3.28;3.05;;;7.50;99.90;;;;;;4159058;28;20037;-83
2022/04/15 03:11:55;;;;;;;3.15;2.95;;;7.40;99.90;;;;;;4161061;28;20129;-83
2022/04/15 03:13:57;;;;;;;4.05;3.03;;;7.40;99.90;;;;;;4159040;28;20424;-83
2022/04/15 03:16:00;;;;;;;4.25;4.05;;;7.30;99.90;;;;;;4173829;28;20055;-83
2022/04/15 03:18:02;;;;;;;4.03;3.05;;;7.30;99.90;;;;;;4171556;28;20050;-83
2022/04/15 03:20:06;;;;;;;4.20;3.90;;;7.30;99.90;;;;;;4147990;28;20129;-83
2022/04/15 03:22:08;;;;;;;3.58;3.42;;;7.30;99.90;;;;;;4157337;28;20126;-83
2022/04/15 03:24:11;;;;;;;2.70;2.60;;;7.30;99.90;;;;;;4165754;28;20112;-83
2022/04/15 03:26:13;;;;;;;;;;;7.30;99.90;;;;;;4162136;28;20140;-83
2022/04/15 03:28:16;;;;;;;3.13;2.92;;;7.30;99.90;;;;;;4167479;28;19921;-83
2022/04/15 03:30:18;;;;;;;2.40;2.30;;;7.30;99.90;;;;;;4159468;28;20149;-83
2022/04/15 03:32:20;;;;;;;3.35;3.15;;;7.30;99.90;;;;;;4162810;28;20145;-83
2022/04/15 03:34:22;;;;;;;3.33;3.22;;;7.30;99.90;;;;;;4161509;28;20602;-83
2022/04/15 03:36:25;;;;;;;7.65;7.05;;;7.40;99.90;;;;;;4162956;28;20113;-83
2022/04/15 03:38:27;;;;;;;5.80;5.32;;;7.40;99.90;;;;;;4172396;28;20045;-83
2022/04/15 03:40:29;;;;;;;3.75;3.65;;;7.20;99.90;;;;;;4168985;28;20040;-83
2022/04/15 03:42:41;;;;;;;7.03;3.30;;;7.10;99.90;;;;;;4178311;28;20635;-83
2022/04/15 03:44:43;;;;;;;3.95;3.53;;;7.00;99.90;;;;;;4159010;28;20076;-83
2022/04/15 03:46:45;;;;;;;3.72;3.47;;;7.00;99.90;;;;;;4162067;28;20100;-83
2022/04/15 03:48:47;;;;;;;3.70;3.53;;;7.10;99.90;;;;;;4162811;28;20049;-83
2022/04/15 03:50:52;;;;;;;3.38;3.20;;;7.20;99.90;;;;;;4161518;28;20041;-83
2022/04/15 03:52:55;;;;;;;4.28;4.15;;;7.30;99.90;;;;;;4164112;28;20037;-83
2022/04/15 03:54:58;;;;;;;2.67;2.58;;;7.30;99.90;;;;;;4162683;28;20049;-83
2022/04/15 03:57:00;;;;;;;3.00;2.75;;;7.30;99.90;;;;;;4161155;28;20041;-83
2022/04/15 03:59:03;;;;;;;3.17;3.08;;;7.20;99.90;;;;;;4161731;28;20468;-84
2022/04/15 04:01:05;;;;;;;3.42;3.33;;;7.10;99.90;;;;;;4162365;28;20043;-83
2022/04/15 04:03:08;;;;;;;4.35;3.97;;;7.00;99.90;;;;;;4161456;28;20096;-83
2022/04/15 04:05:13;;;;;;;4.10;3.75;;;6.80;99.90;;;;;;4162358;28;20046;-83
2022/04/15 04:07:15;;;;;;;5.20;4.90;;;6.70;99.90;;;;;;4162776;28;20064;-83
2022/04/15 04:09:17;;;;;;;8.10;7.60;;;6.70;99.90;;;;;;4163977;28;20053;-83
2022/04/15 04:11:21;;;;;;;7.13;6.57;;;6.70;99.90;;;;;;4165769;28;20064;-83
2022/04/15 04:13:23;;;;;;;6.43;5.00;;;6.80;99.90;;;;;;4163605;28;20037;-83
2022/04/15 04:15:25;;;;;;;6.35;5.95;;;6.90;99.90;;;;;;4166193;28;20087;-83
2022/04/15 04:17:28;;;;;;;4.55;4.45;;;6.80;99.90;;;;;;4175749;28;20447;-83
2022/04/15 04:19:30;;;;;;;;;;;6.70;99.90;;;;;;4166048;28;20180;-83
2022/04/15 04:21:33;;;;;;;3.65;3.55;;;6.50;99.90;;;;;;4161655;28;19932;-83
2022/04/15 04:23:36;;;;;;;3.40;3.30;;;6.40;99.90;;;;;;4160699;28;20152;-83
2022/04/15 04:25:38;;;;;;;3.95;3.80;;;6.40;99.90;;;;;;4148889;28;20104;-83
2022/04/15 04:27:42;;;;;;;3.63;3.35;;;6.40;99.90;;;;;;4174515;28;20061;-83
2022/04/15 04:29:44;;;;;;;3.92;3.58;;;6.40;99.90;;;;;;4166851;28;20069;-83
2022/04/15 04:31:46;;;;;;;3.72;3.63;;;6.30;99.90;;;;;;4169741;28;20061;-83
2022/04/15 04:33:48;;;;;;;3.20;3.10;;;6.30;99.90;;;;;;4170303;28;20041;-83
2022/04/15 04:35:51;;;;;;;3.15;3.05;;;6.40;99.90;;;;;;4167936;28;20430;-83
2022/04/15 04:37:53;;;;;;;3.80;3.63;;;6.50;99.90;;;;;;4168798;28;20528;-83
2022/04/15 04:39:55;;;;;;;3.78;3.67;;;6.40;99.90;;;;;;4166922;28;20038;-83
2022/04/15 04:41:58;;;;;;;3.90;3.80;;;6.30;99.90;;;;;;4163144;28;20107;-83
2022/04/15 04:44:00;;;;;;;4.03;3.78;;;6.20;99.90;;;;;;4164016;28;20046;-83
2022/04/15 04:46:03;;;;;;;3.10;2.95;;;6.20;99.90;;;;;;4163220;28;20635;-83
2022/04/15 04:48:05;;;;;;;5.63;3.33;;;6.20;99.90;;;;;;4160143;28;20501;-83
2022/04/15 04:50:09;;;;;;;;;;;6.20;99.90;;;;;;4165900;28;20072;-83
2022/04/15 04:52:11;;;;;;;;;;;6.30;99.90;;;;;;4161925;28;19929;-83
2022/04/15 04:54:13;;;;;;;3.97;3.88;;;6.50;99.90;;;;;;4161127;28;20375;-83
2022/04/15 04:56:16;;;;;;;6.40;5.78;;;6.50;99.90;;;;;;4160599;28;20073;-83
2022/04/15 04:58:18;;;;;;;5.30;4.68;;;6.60;99.90;;;;;;4161603;28;20095;-83
2022/04/15 05:00:20;;;;;;;4.93;4.55;;;6.60;99.90;;;;;;4159659;28;20112;-83
2022/04/15 05:02:22;;;;;;;4.07;3.80;;;6.50;99.90;;;;;;4164299;28;20076;-83
2022/04/15 05:04:24;;;;;;;5.00;4.75;;;6.40;99.90;;;;;;4164208;28;20556;-83
2022/04/15 05:06:27;;;;;;;4.40;4.10;;;6.30;99.90;;;;;;4160482;28;20095;-83
2022/04/15 05:08:28;;;;;;;3.50;3.28;;;6.20;99.90;;;;;;4164056;28;20092;-83
2022/04/15 05:10:32;;;;;;;4.03;3.72;;;6.10;99.90;;;;;;4162701;28;20124;-83
2022/04/15 05:12:34;;;;;;;4.97;4.53;;;6.10;99.90;;;;;;4169898;28;20048;-83
2022/04/15 05:14:36;;;;;;;6.97;4.88;;;6.20;99.90;;;;;;4160542;28;20497;-83
2022/04/15 05:16:38;;;;;;;4.78;4.18;;;6.30;99.90;;;;;;4160123;28;20152;-83
2022/04/15 05:18:40;;;;;;;4.95;4.38;;;6.40;99.90;;;;;;4173366;28;20146;-84
2022/04/15 05:20:42;;;;;;;4.43;3.72;;;6.30;99.90;;;;;;4159936;28;20799;-83
2022/04/15 05:22:45;;;;;;;3.33;3.13;;;6.30;99.90;;;;;;4160952;28;20125;-83
2022/04/15 05:24:47;;;;;;;3.85;3.55;;;6.40;99.90;;;;;;4160992;28;20669;-84
2022/04/15 05:26:49;;;;;;;3.95;3.03;;;6.40;99.90;;;;;;4168338;28;20394;-83
2022/04/15 05:28:51;;;;;;;3.85;2.28;;;6.40;99.90;;;;;;4162734;28;20045;-84
2022/04/15 05:30:54;;;;;;;2.05;1.95;;;6.50;99.90;;;;;;4161635;28;20076;-83
2022/04/15 05:33:01;;;;;;;2.15;2.05;;;6.50;99.90;;;;;;4162790;28;20037;-83
2022/04/15 05:35:05;;;;;;;;;;;6.50;99.90;;;;;;4173951;28;20048;-84
2022/04/15 05:37:07;;;;;;;;;;;6.50;99.90;;;;;;4162595;28;19975;-84
2022/04/15 05:39:09;;;;;;;2.53;2.42;;;6.50;99.90;;;;;;4144814;28;19922;-83
2022/04/15 05:41:12;;;;;;;2.25;2.15;;;6.60;99.90;;;;;;4162707;28;20069;-84
2022/04/15 05:43:15;;;;;;;3.53;3.33;;;6.60;99.90;;;;;;4153199;28;20037;-84
2022/04/15 05:45:18;;;;;;;3.92;3.63;;;6.70;99.90;;;;;;4161235;28;20124;-83
2022/04/15 05:47:20;;;;;;;4.15;4.05;;;6.70;99.90;;;;;;4162423;28;20772;-84
2022/04/15 05:49:24;;;;;;;3.83;3.72;;;6.80;99.90;;;;;;4161395;28;20493;-84
2022/04/15 05:51:27;;;;;;;4.78;4.20;;;6.90;99.90;;;;;;4161389;28;20041;-83
2022/04/15 05:53:29;;;;;;;9.02;5.90;;;7.00;99.90;;;;;;4159906;28;20040;-84
2022/04/15 05:55:33;;;;;;;7.85;4.75;;;7.00;99.90;;;;;;4175162;28;20563;-84
2022/04/15 05:57:35;;;;;;;6.70;6.05;;;6.90;99.90;;;;;;4159799;28;20045;-84
2022/04/15 05:59:38;;;;;;;5.38;4.82;;;7.00;99.90;;;;;;4164472;28;20041;-84
2022/04/15 06:01:40;;;;;;;4.82;4.43;;;7.20;99.90;;;;;;4156826;28;20560;-84
2022/04/15 06:03:43;;;;;;;6.68;5.00;;;7.30;99.90;;;;;;4150579;28;20042;-84
2022/04/15 06:05:45;;;;;;;5.60;5.25;;;7.30;99.90;;;;;;4155923;28;20042;-84
2022/04/15 06:07:47;;;;;;;5.65;5.25;;;7.30;99.90;;;;;;4159990;28;20594;-84
2022/04/15 06:09:49;;;;;;;4.28;4.18;;;7.30;99.90;;;;;;4164295;28;20071;-86
2022/04/15 06:11:55;;;;;;;3.97;3.78;;;7.40;99.90;;;;;;4159677;28;20103;-86
2022/04/15 06:14:01;;;;;;;4.13;3.92;;;7.50;99.90;;;;;;4176240;28;20037;-86
2022/04/15 06:16:08;;;;;;;3.53;3.35;;;7.60;99.90;;;;;;4162470;28;20042;-86
2022/04/15 06:18:10;;;;;;;2.95;2.85;;;7.70;99.90;;;;;;4171490;28;20531;-86
2022/04/15 06:20:12;;;;;;;4.00;3.80;;;7.80;99.90;;;;;;4168108;28;20096;-86
2022/04/15 06:22:14;;;;;;;2.92;2.80;;;7.90;99.90;;;;;;4162462;28;20069;-86
2022/04/15 06:24:16;;;;;;;2.35;2.20;;;7.90;99.90;;;;;;4161110;28;20045;-86
2022/04/15 06:26:18;;;;;;;3.38;3.25;;;8.10;99.90;;;;;;4148731;28;20073;-86
2022/04/15 06:28:21;;;;;;;2.72;2.47;;;8.20;99.90;;;;;;4174835;28;20068;-86
2022/04/15 06:30:24;;;;;;;4.20;2.78;;;8.30;99.90;;;;;;4164243;28;20034;-86
2022/04/15 06:32:27;;;;;;;2.45;2.30;;;8.50;99.90;;;;;;4164920;28;20037;-86
2022/04/15 06:34:29;;;;;;;4.93;3.22;;;8.60;99.90;;;;;;4160751;28;20065;-86
2022/04/15 06:36:31;;;;;;;2.42;2.33;;;8.70;99.90;;;;;;4175700;28;20060;-86
2022/04/15 06:38:34;;;;;;;4.68;2.70;;;8.80;99.90;;;;;;4151455;28;20053;-86
2022/04/15 06:40:38;;;;;;;6.43;3.63;;;8.80;99.90;;;;;;4169337;28;20030;-86
2022/04/15 06:42:40;;;;;;;2.63;2.53;;;9.00;99.90;;;;;;4151332;28;20068;-86
2022/04/15 06:44:42;;;;;;;5.60;2.97;;;9.10;99.90;;;;;;4156678;28;20081;-86
2022/04/15 06:46:45;;;;;;;3.67;3.38;;;9.20;99.90;;;;;;4162049;28;20041;-86
2022/04/15 06:48:48;;;;;;;4.93;2.22;;;9.20;99.90;;;;;;4159739;28;20080;-86
2022/04/15 06:50:50;;;;;;;12.52;2.78;;;9.30;99.90;;;;;;4160771;28;20456;-86
2022/04/15 06:52:52;;;;;;;2.95;2.85;;;9.50;99.90;;;;;;4163332;28;20033;-87
2022/04/15 06:54:56;;;;;;;3.40;1.95;;;9.60;99.90;;;;;;4152511;28;20141;-87
2022/04/15 06:56:58;;;;;;;2.92;2.33;;;9.70;99.90;;;;;;4166076;28;20104;-87
2022/04/15 06:59:02;;;;;;;3.22;2.38;;;9.80;99.90;;;;;;4148950;28;20073;-87
2022/04/15 07:01:05;;;;;;;2.25;1.73;;;10.00;99.90;;;;;;4152930;28;20120;-87
2022/04/15 07:03:34;;;;;;;3.80;2.03;;;10.10;99.90;;;;;;4176715;28;20037;-88
2022/04/15 07:05:36;;;;;;;5.68;2.15;;;10.20;99.90;;;;;;4162637;28;20577;-88
2022/04/15 07:07:40;;;;;;;4.30;2.25;;;10.30;99.90;;;;;;4163435;28;20052;-87
2022/04/15 07:09:42;;;;;;;5.95;1.30;;;10.50;99.90;;;;;;4148690;28;20057;-87
2022/04/15 07:11:44;;;;;;;4.50;1.70;;;10.70;99.90;;;;;;4158440;28;20060;-88
2022/04/15 07:13:46;;;;;;;1.88;1.70;;;10.90;99.90;;;;;;4167200;28;20041;-87
2022/04/15 07:15:50;;;;;;;1.52;1.35;;;11.10;99.90;;;;;;4147629;28;20124;-87
2022/04/15 07:17:55;;;;;;;1.75;1.48;;;11.30;99.90;;;;;;4162020;28;20104;-87
2022/04/15 07:19:58;;;;;;;6.25;1.50;;;11.60;99.90;;;;;;4162532;28;20072;-87
2022/04/15 07:22:05;;;;;;;2.30;1.40;;;11.80;99.90;;;;;;4167423;28;20123;-87
2022/04/15 07:24:07;;;;;;;6.45;2.20;;;12.00;99.90;;;;;;4177152;28;20083;-88
2022/04/15 07:26:10;;;;;;;5.53;1.52;;;12.30;99.90;;;;;;4162062;28;20053;-88
2022/04/15 07:28:13;;;;;;;1.85;1.75;;;12.30;99.90;;;;;;4161628;28;20087;-88
2022/04/15 07:30:17;;;;;;;3.00;1.50;;;12.50;99.90;;;;;;4161047;28;20073;-88
2022/04/15 07:32:25;;;;;;;3.78;1.50;;;12.80;99.90;;;;;;4161727;28;20050;-88
2022/04/15 07:34:27;;;;;;;2.80;1.63;;;12.90;99.90;;;;;;4145380;28;20108;-87
2022/04/15 07:38:39;;;;;;;1.98;1.45;;;13.10;99.90;;;;;;4178484;28;19920;-88
2022/04/15 07:40:41;;;;;;;5.65;1.40;;;13.20;99.90;;;;;;4145238;28;20092;-88
2022/04/15 07:42:44;;;;;;;1.38;1.10;;;13.30;99.90;;;;;;4169022;28;20130;-88
2022/04/15 07:44:46;;;;;;;2.00;1.20;;;13.40;99.90;;;;;;4173713;28;20067;-88
2022/04/15 07:46:48;;;;;;;1.40;1.30;;;13.60;99.90;;;;;;4165224;28;20456;-88
2022/04/15 07:48:50;;;;;;;2.65;1.23;;;13.80;99.90;;;;;;4147849;28;20107;-88
2022/04/15 07:50:55;;;;;;;3.45;1.52;;;14.00;99.90;;;;;;4174963;28;20132;-87
2022/04/15 07:52:59;;;;;;;3.42;2.05;;;14.40;99.90;;;;;;4162983;28;20537;-88
2022/04/15 07:55:02;;;;;;;4.03;1.63;;;14.70;99.90;;;;;;4160678;28;20144;-88
2022/04/15 07:57:03;;;;;;;;;;;15.10;99.90;;;;;;4164567;28;20065;-88
2022/04/15 07:59:07;;;;;;;1.00;1.00;;;15.00;99.90;;;;;;4163418;28;19967;-88
2022/04/15 08:01:10;;;;;;;2.25;1.52;;;15.30;99.90;;;;;;4165075;28;20479;-88
2022/04/15 08:03:13;;;;;;;6.07;1.50;;;15.40;99.90;;;;;;4163396;28;20104;-88
2022/04/15 08:05:16;;;;;;;6.15;1.40;;;15.50;99.90;;;;;;4151067;28;20056;-88
2022/04/15 08:07:18;;;;;;;2.50;1.50;;;15.60;99.90;;;;;;4165914;28;20113;-88
2022/04/15 08:09:20;;;;;;;2.63;1.13;;;15.80;99.90;;;;;;4177573;28;20111;-88
2022/04/15 08:11:24;;;;;;;3.25;1.30;;;16.10;99.90;;;;;;4160769;28;20076;-88
2022/04/15 08:13:26;;;;;;;2.05;1.48;;;16.60;99.90;;;;;;4147450;28;20733;-88
2022/04/15 08:15:29;;;;;;;3.85;1.52;;;16.80;99.20;;;;;;4146454;28;20046;-88
2022/04/15 08:17:33;;;;;;;3.92;1.48;;;16.70;98.50;;;;;;4150329;28;20040;-88
2022/04/15 08:19:35;;;;;;;2.15;1.20;;;16.70;98.90;;;;;;4153534;28;20486;-88
2022/04/15 08:21:38;;;;;;;2.00;1.05;;;16.80;98.30;;;;;;4167251;28;20416;-88
2022/04/15 08:23:41;;;;;;;5.55;1.17;;;17.30;98.70;;;;;;4161970;28;20041;-88
2022/04/15 08:25:44;;;;;;;1.20;1.20;;;17.60;97.70;;;;;;4163187;28;20140;-88
2022/04/15 08:27:48;;;;;;;4.15;1.35;;;18.10;96.60;;;;;;4145089;28;20132;-88
2022/04/15 08:29:50;;;;;;;2.08;1.08;;;18.10;96.30;;;;;;4170156;28;20075;-88
2022/04/15 08:31:54;;;;;;;2.15;1.10;;;17.90;96.50;;;;;;4162353;28;20140;-88
2022/04/15 08:33:57;;;;;;;4.50;1.50;;;18.00;96.20;;;;;;4163842;28;20052;-88
2022/04/15 08:35:59;;;;;;;1.88;1.10;;;18.10;94.80;;;;;;4162631;28;20068;-88
2022/04/15 08:38:03;;;;;;;1.27;1.10;;;18.30;95.30;;;;;;4154116;28;20128;-88
2022/04/15 08:40:07;;;;;;;2.22;1.40;;;18.50;95.10;;;;;;4170971;28;20064;-88
2022/04/15 08:42:10;;;;;;;2.25;1.02;;;18.70;95.90;;;;;;4149484;28;20537;-88
2022/04/15 08:44:12;;;;;;;3.00;1.00;;;19.00;95.60;;;;;;4175560;28;20143;-89
2022/04/15 08:46:16;;;;;;;5.88;1.85;;;19.20;92.90;;;;;;4155821;28;20046;-88
2022/04/15 08:48:19;;;;;;;1.20;1.10;;;19.10;94.40;;;;;;4144716;28;20034;-88
2022/04/15 08:50:21;;;;;;;;;;;19.30;94.40;;;;;;4154444;28;20103;-88
2022/04/15 08:52:25;;;;;;;1.40;1.30;;;19.60;94.30;;;;;;4148620;28;19925;-88
2022/04/15 08:54:28;;;;;;;3.85;1.55;;;20.00;94.10;;;;;;4163890;28;20072;-88
2022/04/15 08:56:31;;;;;;;2.03;1.30;;;20.20;91.50;;;;;;4151713;28;20080;-89
2022/04/15 08:58:33;;;;;;;2.60;1.20;;;20.50;91.90;;;;;;4164137;28;20087;-89
2022/04/15 09:00:36;;;;;;;0.98;0.98;;;20.60;89.20;;;;;;4150559;28;20033;-89
2022/04/15 09:02:41;;;;;;;1.13;0.90;;;20.50;88.60;;;;;;4173727;28;20100;-89
2022/04/15 09:04:47;;;;;;;5.18;0.90;;;20.80;86.50;;;;;;4162330;28;20037;-89
2022/04/15 09:07:02;;;;;;;1.65;0.77;;;21.10;89.90;;;;;;4145013;28;20406;-89
2022/04/15 09:09:08;;;;;;;1.20;0.90;;;21.50;86.80;;;;;;4160616;28;20524;-89
2022/04/15 09:11:10;;;;;;;1.05;0.80;;;21.60;81.50;;;;;;4154674;28;20442;-89
2022/04/15 09:13:34;;;;;;;2.92;0.70;;;21.80;82.00;;;;;;4146980;28;20069;-89
2022/04/15 09:15:37;;;;;;;0.80;0.70;;;22.10;79.50;;;;;;4160084;28;20628;-89
2022/04/15 09:17:41;;;;;;;1.77;0.80;;;22.10;78.00;;;;;;4174219;28;20060;-89
2022/04/15 09:19:44;;;;;;;0.85;0.85;;;22.30;78.20;;;;;;4150408;28;20038;-89
2022/04/15 09:21:54;;;;;;;1.58;0.80;;;22.40;77.90;;;;;;4166807;28;20103;-89
2022/04/15 09:23:57;;;;;;;1.20;0.70;;;22.20;72.70;;;;;;4152508;28;20666;-89
2022/04/15 09:26:00;;;;;;;0.60;0.60;;;22.40;74.00;;;;;;4176748;28;20087;-89
2022/04/15 09:28:02;;;;;;;1.75;0.60;;;22.20;69.30;;;;;;4173562;28;20068;-89
2022/04/15 09:30:07;;;;;;;0.60;0.60;;;22.20;70.60;;;;;;4163293;28;20693;-89
2022/04/15 09:32:11;;;;;;;0.95;0.60;;;22.00;65.10;;;;;;4160723;28;20681;-89
2022/04/15 09:34:13;;;;;;;0.65;0.65;;;22.00;67.00;;;;;;4163057;28;20156;-89
2022/04/15 09:36:27;;;;;;;0.63;0.63;;;22.40;68.10;;;;;;4161736;28;20025;-89
2022/04/15 09:38:44;;;;;;;5.97;0.68;;;23.20;74.60;;;;;;4162224;28;20044;-89
2022/04/15 09:40:47;;;;;;;7.72;0.60;;;23.10;67.40;;;;;;4157668;28;20045;-89
2022/04/15 09:42:55;;;;;;;0.65;0.60;;;23.10;67.30;;;;;;4169740;28;20041;-89
2022/04/15 09:45:21;;;;;;;0.70;0.60;;;23.20;63.00;;;;;;4155550;28;20041;-89
2022/04/15 09:47:24;;;;;;;0.60;0.60;;;23.00;65.10;;;;;;4172747;28;20073;-89
2022/04/15 09:49:26;;;;;;;2.30;0.60;;;23.10;65.30;;;;;;4168471;28;20041;-89
2022/04/15 09:51:33;;;;;;;0.60;0.60;;;23.30;63.80;;;;;;4153892;28;20053;-89
2022/04/15 09:53:36;;;;;;;0.60;0.60;;;23.30;63.30;;;;;;4163043;28;20463;-89
2022/04/15 09:55:41;;;;;;;1.75;0.55;;;23.30;65.70;;;;;;4161640;28;20640;-89
2022/04/15 09:57:45;;;;;;;1.25;0.60;;;23.50;66.60;;;;;;4146531;28;20053;-89
2022/04/15 09:59:54;;;;;;;0.50;0.50;;;23.40;64.80;;;;;;4144646;28;20069;-88
2022/04/15 10:02:05;;;;;;;0.77;0.50;;;23.10;62.30;;;;;;4160364;28;20037;-89
2022/04/15 10:04:10;;;;;;;1.98;0.50;;;23.50;62.50;;;;;;4176008;28;20052;-89
2022/04/15 10:06:13;;;;;;;0.50;0.50;;;23.60;59.70;;;;;;4159920;28;20049;-89
2022/04/15 10:08:36;;;;;;;1.33;0.50;;;23.80;61.70;;;;;;4167746;28;20045;-89
2022/04/15 10:10:39;;;;;;;0.50;0.50;;;23.70;58.00;;;;;;4162464;28;20060;-89
2022/04/15 10:12:42;;;;;;;0.50;0.50;;;24.00;59.70;;;;;;4147992;28;20417;-90
2022/04/15 10:14:45;;;;;;;1.52;0.50;;;24.30;57.60;;;;;;4152519;28;20038;-89
2022/04/15 10:16:48;;;;;;;1.08;0.52;;;24.20;60.50;;;;;;4169597;28;20037;-89
2022/04/15 10:18:51;;;;;;;0.40;0.40;;;24.40;59.70;;;;;;4162618;28;20112;-89
2022/04/15 10:20:53;;;;;;;0.50;0.50;;;24.70;57.50;;;;;;4164030;28;20171;-89
2022/04/15 10:23:03;;;;;;;;;;;24.60;56.70;;;;;;4163113;28;20484;-89
2022/04/15 10:25:07;;;;;;;0.50;0.50;;;24.40;56.00;;;;;;4161348;28;20292;-89
2022/04/15 10:27:11;;;;;;;0.45;0.45;;;24.70;61.60;;;;;;4165656;28;20833;-89
2022/04/15 10:29:14;;;;;;;0.40;0.40;;;24.70;57.40;;;;;;4178606;28;20787;-88
2022/04/15 10:31:17;;;;;;;0.40;0.40;;;24.50;57.20;;;;;;4151651;28;20050;-86
2022/04/15 10:33:49;;;;;;;0.40;0.40;;;24.90;59.20;;;;;;4166562;28;20725;-86
2022/04/15 10:35:58;;;;;;;0.40;0.40;;;25.20;61.00;;;;;;4170960;28;20646;-86
2022/04/15 10:38:12;;;;;;;0.45;0.40;;;25.40;57.70;;;;;;4171893;28;20116;-86
2022/04/15 10:40:45;;;;;;;0.40;0.40;;;25.70;60.70;;;;;;4166045;28;20474;-86
2022/04/15 10:42:47;;;;;;;0.40;0.40;;;25.70;56.40;;;;;;4165790;28;20053;-86
2022/04/15 10:44:51;;;;;;;0.40;0.40;;;25.50;53.50;;;;;;4170086;28;20060;-86
2022/04/15 10:46:57;;;;;;;3.42;0.50;;;25.50;54.80;;;;;;4162692;28;20076;-87
2022/04/15 10:49:27;;;;;;;0.40;0.40;;;25.70;56.00;;;;;;4153296;28;20091;-87
2022/04/15 10:51:34;;;;;;;1.83;0.45;;;25.80;59.30;;;;;;4166118;28;20148;-87
2022/04/15 10:53:38;;;;;;;0.50;0.40;;;25.70;58.70;;;;;;4155047;28;20050;-86